Time;durP1;ratioP1;P1;durP2;ratioP2;P2;SDS_P1;SDS_P2;PMS_P1;PMS_P2;Temp;Humidity;BMP_temperature;BMP_pressure;BME280_temperature;BME280_humidity;BME280_pressure;Samples;Min_cycle;Max_cycle;Signal;HPM_P1;HPM_P2
2022/06/12 00:01:25;;;;;;;7.93;6.07;;;;;;;17.21;98.89;98712.41;5052486;28;20667;-77
2022/06/12 00:03:53;;;;;;;6.73;5.57;;;;;;;17.19;98.95;98711.66;5052973;28;20265;-77
2022/06/12 00:06:22;;;;;;;7.77;6.50;;;;;;;17.07;99.33;98707.38;5052448;28;20236;-77
2022/06/12 00:08:51;;;;;;;7.00;6.13;;;;;;;16.96;100.00;98710.13;5052446;28;20218;-77
2022/06/12 00:11:20;;;;;;;6.87;6.17;;;;;;;16.89;100.00;98702.78;5052585;28;20303;-77
2022/06/12 00:13:50;;;;;;;7.67;6.40;;;;;;;16.82;100.00;98712.31;5052826;28;20208;-77
2022/06/12 00:16:18;;;;;;;6.83;6.23;;;;;;;16.82;100.00;98715.81;5053099;28;20302;-77
2022/06/12 00:18:45;;;;;;;7.60;6.47;;;;;;;16.82;100.00;98713.13;5055775;28;20662;-77
2022/06/12 00:21:12;;;;;;;7.43;6.03;;;;;;;16.84;100.00;98711.22;5054386;28;20704;-77
2022/06/12 00:23:42;;;;;;;6.90;5.90;;;;;;;16.85;100.00;98701.34;5056365;28;20244;-77
2022/06/12 00:26:11;;;;;;;6.43;5.73;;;;;;;16.84;100.00;98705.00;5056035;28;20232;-77
2022/06/12 00:28:37;;;;;;;6.13;5.57;;;;;;;16.82;100.00;98707.81;5055969;28;20224;-77
2022/06/12 00:31:04;;;;;;;8.87;5.97;;;;;;;16.81;100.00;98706.13;5055888;28;20208;-77
2022/06/12 00:33:31;;;;;;;6.67;5.80;;;;;;;16.78;100.00;98706.41;5056481;28;20212;-77
2022/06/12 00:35:59;;;;;;;5.87;5.27;;;;;;;16.77;100.00;98703.84;5055979;28;20342;-77
2022/06/12 00:38:25;;;;;;;6.60;5.53;;;;;;;16.75;100.00;98711.97;5055701;28;20247;-77
2022/06/12 00:40:52;;;;;;;5.97;5.40;;;;;;;16.71;100.00;98707.84;5056078;28;20214;-77
2022/06/12 00:43:20;;;;;;;6.63;6.07;;;;;;;16.69;100.00;98706.28;5056356;28;20601;-77
2022/06/12 00:45:49;;;;;;;7.60;6.10;;;;;;;16.67;100.00;98706.44;5054310;28;20232;-77
2022/06/12 00:48:19;;;;;;;6.30;5.70;;;;;;;16.64;100.00;98706.69;5056168;28;20215;-77
2022/06/12 00:50:58;;;;;;;6.03;5.43;;;;;;;16.62;100.00;98703.31;5056367;28;20208;-77
2022/06/12 00:53:32;;;;;;;6.93;5.47;;;;;;;16.56;100.00;98706.50;5055405;28;20214;-77
2022/06/12 00:56:05;;;;;;;6.60;5.67;;;;;;;16.50;100.00;98701.69;5055705;28;20273;-76
2022/06/12 00:58:38;;;;;;;6.60;5.70;;;;;;;16.45;100.00;98703.88;5055876;28;20204;-77
2022/06/12 01:01:09;;;;;;;7.37;5.97;;;;;;;16.39;100.00;98704.41;5055542;28;20208;-77
2022/06/12 01:06:33;;;;;;;6.40;5.80;;;;;;;16.37;100.00;98709.00;5055356;28;20212;-77
2022/06/12 01:06:34;;;;;;;6.27;5.27;;;;;;;16.35;100.00;98702.91;5055481;28;20231;-77
2022/06/12 01:09:01;;;;;;;6.33;5.73;;;;;;;16.31;100.00;98700.63;5055204;28;20212;-77
2022/06/12 01:11:27;;;;;;;6.53;5.93;;;;;;;16.28;100.00;98701.75;5054111;28;20216;-77
2022/06/12 01:13:55;;;;;;;7.27;5.83;;;;;;;16.28;100.00;98692.91;5055827;28;20548;-77
2022/06/12 01:16:22;;;;;;;6.43;5.83;;;;;;;16.24;100.00;98694.97;5055058;28;20689;-77
2022/06/12 01:18:52;;;;;;;6.57;5.77;;;;;;;16.19;100.00;98697.19;5055385;28;20212;-77
2022/06/12 01:21:56;;;;;;;6.50;5.63;;;;;;;16.15;100.00;98705.56;5055528;28;20616;-77
2022/06/12 01:24:39;;;;;;;6.90;5.97;;;;;;;16.12;100.00;98699.66;5055521;28;20214;-77
2022/06/12 01:27:35;;;;;;;6.83;6.07;;;;;;;16.08;100.00;98698.19;5055769;28;20246;-77
2022/06/12 01:30:12;;;;;;;7.00;6.10;;;;;;;16.02;100.00;98695.06;5054177;28;20215;-77
2022/06/12 01:32:46;;;;;;;6.07;5.47;;;;;;;15.95;100.00;98693.00;5054999;28;20207;-77
2022/06/12 01:35:20;;;;;;;5.93;5.43;;;;;;;15.96;100.00;98693.88;5054990;28;20298;-78
2022/06/12 01:37:53;;;;;;;7.40;5.80;;;;;;;15.93;100.00;98694.09;5052942;28;20702;-77
2022/06/12 01:40:30;;;;;;;6.37;5.77;;;;;;;15.89;100.00;98693.50;5055014;28;20208;-77
2022/06/12 01:43:09;;;;;;;6.83;6.00;;;;;;;15.84;100.00;98690.41;5054586;28;20613;-77
2022/06/12 01:45:44;;;;;;;6.50;5.80;;;;;;;15.80;100.00;98693.41;5054973;28;20203;-77
2022/06/12 01:48:21;;;;;;;6.73;5.83;;;;;;;15.75;100.00;98696.47;5054855;28;20619;-77
2022/06/12 01:50:55;;;;;;;7.07;6.37;;;;;;;15.71;100.00;98696.84;5054760;28;20219;-77
2022/06/12 01:53:30;;;;;;;7.70;6.43;;;;;;;15.65;100.00;98698.16;5054688;28;20207;-77
2022/06/12 01:56:02;;;;;;;7.53;6.83;;;;;;;15.59;100.00;98697.81;5063539;28;20222;-78
2022/06/12 01:58:33;;;;;;;7.50;6.80;;;;;;;15.57;100.00;98694.44;5069887;28;20216;-78
2022/06/12 02:01:08;;;;;;;7.80;7.00;;;;;;;15.59;100.00;98687.16;5068948;28;20699;-78
2022/06/12 02:03:41;;;;;;;8.30;7.10;;;;;;;15.60;100.00;98688.84;5067691;28;20218;-78
2022/06/12 02:06:14;;;;;;;7.67;6.90;;;;;;;15.57;100.00;98681.13;5068314;28;20224;-78
2022/06/12 02:08:46;;;;;;;7.40;6.70;;;;;;;15.56;100.00;98679.41;5069087;28;20271;-75
2022/06/12 02:14:04;;;;;;;8.57;6.70;;;;;;;15.52;100.00;98684.13;5055580;28;20246;-76
2022/06/12 02:16:36;;;;;;;8.77;6.83;;;;;;;15.50;100.00;98685.22;5053968;28;20214;-75
2022/06/12 02:19:09;;;;;;;7.70;6.90;;;;;;;15.47;100.00;98685.50;5054175;28;20214;-78
2022/06/12 02:21:41;;;;;;;7.37;6.43;;;;;;;15.45;100.00;98682.13;5054431;28;20208;-77
2022/06/12 02:24:13;;;;;;;7.97;6.40;;;;;;;15.47;100.00;98690.81;5054198;28;20239;-76
2022/06/12 02:26:45;;;;;;;6.97;6.27;;;;;;;15.46;100.00;98681.13;5054821;28;20243;-78
2022/06/12 02:29:16;;;;;;;7.13;6.43;;;;;;;15.45;100.00;98687.44;5052316;28;20208;-77
2022/06/12 02:31:47;;;;;;;7.13;6.43;;;;;;;15.41;100.00;98686.81;5053332;28;20205;-75
2022/06/12 02:34:18;;;;;;;7.67;6.87;;;;;;;15.41;100.00;98691.31;5053872;28;20212;-77
2022/06/12 02:36:49;;;;;;;7.67;6.20;;;;;;;15.42;100.00;98693.00;5053309;28;20700;-77
2022/06/12 02:39:22;;;;;;;7.30;6.60;;;;;;;15.42;100.00;98688.53;5053873;28;20212;-74
2022/06/12 02:41:52;;;;;;;7.57;6.27;;;;;;;15.42;100.00;98685.00;5053865;28;20212;-75
2022/06/12 02:44:23;;;;;;;6.93;6.23;;;;;;;15.41;100.00;98686.81;5053874;28;20214;-76
2022/06/12 02:46:56;;;;;;;7.60;6.67;;;;;;;15.35;100.00;98691.78;5053781;28;20649;-76
2022/06/12 02:49:23;;;;;;;7.87;7.07;;;;;;;15.25;100.00;98685.47;5054149;28;20615;-76
2022/06/12 02:51:57;;;;;;;7.67;6.87;;;;;;;15.20;100.00;98695.63;5053945;28;20586;-76
2022/06/12 02:54:31;;;;;;;7.37;6.43;;;;;;;15.13;100.00;98691.75;5052147;28;20208;-76
2022/06/12 02:57:09;;;;;;;7.47;6.77;;;;;;;15.07;100.00;98693.09;5053333;28;20211;-76
2022/06/12 02:59:48;;;;;;;7.87;7.07;;;;;;;15.03;100.00;98680.97;5053288;28;20218;-76
2022/06/12 03:02:20;;;;;;;8.17;6.97;;;;;;;14.99;100.00;98694.66;5053525;28;20204;-76
2022/06/12 03:04:52;;;;;;;7.90;7.10;;;;;;;14.97;100.00;98686.78;5053767;28;20602;-76
2022/06/12 03:07:19;;;;;;;7.27;6.57;;;;;;;14.95;100.00;98682.53;5053396;28;20330;-76
2022/06/12 03:09:46;;;;;;;8.83;6.97;;;;;;;14.92;100.00;98680.13;5053229;28;20212;-76
2022/06/12 03:12:13;;;;;;;7.80;6.37;;;;;;;14.89;100.00;98683.88;5053651;28;20204;-76
2022/06/12 03:14:40;;;;;;;7.20;6.50;;;;;;;14.87;100.00;98687.63;5053290;28;20204;-76
2022/06/12 03:17:07;;;;;;;7.50;6.67;;;;;;;14.84;100.00;98682.56;5053688;28;20208;-76
2022/06/12 03:19:43;;;;;;;7.60;6.53;;;;;;;14.74;100.00;98673.56;5053586;28;20207;-76
2022/06/12 03:22:24;;;;;;;6.63;6.03;;;;;;;14.74;100.00;98685.06;5051254;28;20218;-76
2022/06/12 03:24:57;;;;;;;6.87;6.07;;;;;;;14.74;100.00;98689.53;5053274;28;20208;-76
2022/06/12 03:27:43;;;;;;;7.33;6.60;;;;;;;14.67;100.00;98685.66;5053138;28;20232;-76
2022/06/12 03:30:18;;;;;;;7.37;6.57;;;;;;;14.66;100.00;98691.97;5052912;28;20642;-76
2022/06/12 03:32:53;;;;;;;7.50;6.40;;;;;;;14.62;100.00;98680.69;5053210;28;20298;-76
2022/06/12 03:35:34;;;;;;;8.03;6.27;;;;;;;14.65;100.00;98690.22;5052865;28;20226;-76
2022/06/12 03:38:06;;;;;;;6.70;6.00;;;;;;;14.70;100.00;98688.06;5053558;28;20232;-76
2022/06/12 03:40:41;;;;;;;7.03;6.07;;;;;;;14.72;100.00;98686.16;5053102;28;20210;-76
2022/06/12 03:43:13;;;;;;;7.00;6.40;;;;;;;14.78;100.00;98683.03;5053050;28;20208;-75
2022/06/12 03:45:47;;;;;;;7.00;6.30;;;;;;;14.83;100.00;98683.50;5052732;28;20227;-76
2022/06/12 03:48:26;;;;;;;7.10;6.50;;;;;;;14.86;100.00;98683.28;5052346;28;20231;-76
2022/06/12 03:51:03;;;;;;;6.57;5.97;;;;;;;14.98;100.00;98692.97;5053003;28;20623;-78
2022/06/12 03:53:37;;;;;;;6.50;5.50;;;;;;;15.02;100.00;98689.94;5055801;28;20752;-76
2022/06/12 03:59:12;;;;;;;7.20;6.50;;;;;;;15.08;100.00;98696.59;5014782;28;20232;-75
2022/06/12 04:01:41;;;;;;;7.70;6.87;;;;;;;15.10;100.00;98692.00;5048564;28;20657;-75
2022/06/12 04:04:09;;;;;;;7.67;6.97;;;;;;;15.15;100.00;98689.84;5056537;28;20678;-77
2022/06/12 04:06:37;;;;;;;7.77;6.90;;;;;;;15.22;100.00;98691.03;5056240;28;20250;-76
2022/06/12 04:09:08;;;;;;;6.93;6.33;;;;;;;15.25;100.00;98686.31;5056961;28;20554;-76
2022/06/12 04:11:39;;;;;;;6.73;6.03;;;;;;;15.31;100.00;98690.31;5055935;28;20218;-76
2022/06/12 04:14:11;;;;;;;7.67;6.20;;;;;;;15.38;100.00;98686.22;5056074;28;20666;-76
2022/06/12 04:16:41;;;;;;;7.53;6.30;;;;;;;15.43;100.00;98689.34;5056403;28;20212;-75
2022/06/12 04:19:13;;;;;;;7.67;5.83;;;;;;;15.51;100.00;98692.28;5056599;28;20215;-75
2022/06/12 04:21:45;;;;;;;7.27;6.57;;;;;;;15.57;100.00;98697.13;5055957;28;20204;-76
2022/06/12 04:24:17;;;;;;;6.60;5.93;;;;;;;15.63;100.00;98692.13;5056062;28;20212;-75
2022/06/12 04:26:49;;;;;;;7.43;6.37;;;;;;;15.70;100.00;98695.16;5056203;28;20234;-76
2022/06/12 04:29:24;;;;;;;6.67;6.10;;;;;;;15.75;100.00;98695.59;5056268;28;20208;-77
2022/06/12 04:31:54;;;;;;;6.50;5.80;;;;;;;15.83;100.00;98694.00;5055776;28;20207;-76
2022/06/12 04:34:23;;;;;;;6.47;5.80;;;;;;;15.91;100.00;98696.06;5057011;28;20212;-76
2022/06/12 04:36:53;;;;;;;5.97;5.43;;;;;;;15.96;100.00;98693.88;5055841;28;20274;-77
2022/06/12 04:39:24;;;;;;;7.23;6.23;;;;;;;16.04;100.00;98701.09;5054489;28;20207;-77
2022/06/12 04:41:51;;;;;;;7.23;5.90;;;;;;;16.12;100.00;98694.31;5056189;28;20211;-76
2022/06/12 04:44:19;;;;;;;6.27;5.67;;;;;;;16.17;100.00;98692.94;5055655;28;20214;-77
2022/06/12 04:46:49;;;;;;;6.13;5.53;;;;;;;16.23;100.00;98698.63;5055945;28;20227;-76
2022/06/12 04:49:18;;;;;;;6.27;5.67;;;;;;;16.31;100.00;98697.97;5055900;28;20582;-76
2022/06/12 04:51:45;;;;;;;6.80;5.50;;;;;;;16.38;100.00;98708.03;5055706;28;20218;-77
2022/06/12 04:54:14;;;;;;;5.97;5.37;;;;;;;16.66;100.00;98707.44;5056434;28;20571;-75
2022/06/12 04:56:41;;;;;;;7.20;5.50;;;;;;;17.33;100.00;98716.69;5055897;28;20219;-77
2022/06/12 04:59:09;;;;;;;6.03;5.43;;;;;;;17.87;100.00;98714.47;5055730;28;20801;-77
2022/06/12 05:01:36;;;;;;;6.00;5.50;;;;;;;18.58;95.76;98708.81;5055617;28;20211;-77
2022/06/12 05:04:05;;;;;;;5.67;5.17;;;;;;;19.38;90.23;98707.41;5052701;28;20231;-77
2022/06/12 05:06:33;;;;;;;5.93;5.33;;;;;;;20.17;85.79;98713.97;5055425;28;20212;-77
2022/06/12 05:09:01;;;;;;;5.47;4.97;;;;;;;20.93;81.25;98711.50;5055808;28;20208;-77
2022/06/12 05:11:29;;;;;;;5.10;4.70;;;;;;;21.58;76.41;98708.19;5055162;28;20214;-77
2022/06/12 05:13:55;;;;;;;5.33;4.87;;;;;;;22.19;73.54;98711.50;5055444;28;20262;-77
2022/06/12 05:16:29;;;;;;;6.10;4.80;;;;;;;22.79;70.42;98712.13;5055480;28;20208;-78
2022/06/12 05:18:56;;;;;;;6.90;5.70;;;;;;;23.28;65.30;98709.22;5055442;28;20223;-78
2022/06/12 05:21:23;;;;;;;5.57;5.07;;;;;;;23.70;63.81;98714.34;5055628;28;20208;-77
2022/06/12 05:23:50;;;;;;;6.73;4.97;;;;;;;24.12;61.46;98720.28;5054811;28;20208;-77
2022/06/12 05:26:18;;;;;;;4.87;4.47;;;;;;;24.52;59.79;98722.75;5055083;28;20219;-78
2022/06/12 05:28:47;;;;;;;5.30;4.80;;;;;;;24.90;57.52;98719.97;5054860;28;20255;-78
2022/06/12 05:31:14;;;;;;;6.13;4.80;;;;;;;25.19;56.16;98711.94;5053905;28;20200;-77
2022/06/12 05:33:41;;;;;;;5.10;4.53;;;;;;;25.50;55.74;98720.78;5054672;28;20212;-77
2022/06/12 05:36:08;;;;;;;5.17;4.73;;;;;;;25.78;53.91;98715.56;5055059;28;20215;-77
2022/06/12 05:38:35;;;;;;;5.20;4.70;;;;;;;26.01;53.68;98714.44;5055558;28;20590;-77
2022/06/12 05:41:02;;;;;;;5.27;4.77;;;;;;;26.18;53.06;98721.34;5055331;28;20208;-77
2022/06/12 05:43:29;;;;;;;5.67;4.53;;;;;;;26.39;51.96;98713.22;5054927;28;20299;-77
2022/06/12 05:45:57;;;;;;;5.57;5.07;;;;;;;26.64;51.00;98717.28;5054321;28;20286;-77
2022/06/12 05:48:24;;;;;;;5.73;4.80;;;;;;;26.94;50.57;98708.00;5054688;28;20244;-77
2022/06/12 05:50:53;;;;;;;5.57;4.20;;;;;;;27.21;50.21;98706.38;5055051;28;20212;-77
2022/06/12 05:53:22;;;;;;;4.67;4.27;;;;;;;27.46;49.25;98703.03;5054665;28;20212;-77
2022/06/12 05:55:48;;;;;;;4.90;4.50;;;;;;;27.63;48.00;98709.84;5053235;28;20239;-77
2022/06/12 05:58:16;;;;;;;5.37;4.87;;;;;;;27.83;47.20;98705.38;5054516;28;20218;-78
2022/06/12 06:00:44;;;;;;;4.67;4.27;;;;;;;28.03;47.01;98711.75;5054150;28;20210;-78
2022/06/12 06:03:12;;;;;;;5.03;4.60;;;;;;;28.17;46.29;98718.91;5054183;28;20211;-78
2022/06/12 06:05:40;;;;;;;5.20;4.70;;;;;;;28.33;45.57;98724.00;5054081;28;20705;-78
2022/06/12 06:08:08;;;;;;;5.20;4.60;;;;;;;28.44;45.40;98718.00;5053804;28;20731;-78
2022/06/12 06:10:35;;;;;;;4.83;4.43;;;;;;;28.69;45.51;98716.41;5054278;28;20223;-78
2022/06/12 06:13:02;;;;;;;4.37;3.97;;;;;;;28.96;44.56;98723.59;5054107;28;20204;-78
2022/06/12 06:15:29;;;;;;;5.03;4.40;;;;;;;29.18;44.49;98720.50;5053544;28;20204;-78
2022/06/12 06:17:56;;;;;;;4.90;4.23;;;;;;;29.39;43.87;98716.69;5054058;28;20208;-79
2022/06/12 06:20:26;;;;;;;5.37;4.87;;;;;;;29.55;43.36;98716.28;5053254;28;20220;-78
2022/06/12 06:22:54;;;;;;;5.23;4.40;;;;;;;29.63;43.65;98721.50;5053164;28;20204;-79
2022/06/12 06:25:22;;;;;;;4.67;4.27;;;;;;;29.82;42.58;98712.44;5053572;28;20212;-79
2022/06/12 06:27:51;;;;;;;4.67;4.27;;;;;;;29.99;42.69;98721.84;5054155;28;20228;-80
2022/06/12 06:30:19;;;;;;;5.20;4.43;;;;;;;30.17;41.88;98722.03;5054360;28;20212;-79
2022/06/12 06:32:46;;;;;;;4.97;4.47;;;;;;;30.19;41.42;98719.94;5053368;28;20266;-79
2022/06/12 06:35:13;;;;;;;4.78;4.22;;;;;;;30.16;41.25;98720.34;5053756;28;20224;-80
2022/06/12 06:37:41;;;;;;;4.50;4.05;;;;;;;30.25;41.41;98724.53;5053850;28;20239;-78
2022/06/12 06:40:11;;;;;;;4.75;4.32;;;;;;;30.37;40.68;98725.53;5053909;28;20211;-77
2022/06/12 06:42:38;;;;;;;5.50;4.70;;;;;;;30.22;40.48;98730.41;5053409;28;20219;-77
2022/06/12 06:47:49;;;;;;;4.73;4.03;;;;;;;30.48;40.37;98725.69;5051681;28;20223;-77
2022/06/12 06:50:17;;;;;;;4.88;4.25;;;;;;;30.45;40.48;98733.47;5053230;28;20216;-78
2022/06/12 06:52:45;;;;;;;7.45;4.38;;;;;;;30.40;40.11;98727.81;5053160;28;20208;-77
2022/06/12 06:55:13;;;;;;;4.60;4.20;;;;;;;30.19;40.72;98733.59;5053338;28;20375;-77
2022/06/12 06:57:43;;;;;;;6.65;4.55;;;;;;;30.00;40.99;98727.09;5052985;28;20214;-77
2022/06/12 07:00:14;;;;;;;6.27;4.47;;;;;;;29.80;41.64;98730.91;5053353;28;20582;-78
2022/06/12 07:02:40;;;;;;;5.07;4.57;;;;;;;29.12;42.86;98728.63;5054005;28;20215;-78
2022/06/12 07:05:09;;;;;;;4.95;4.50;;;;;;;28.99;43.18;98732.19;5053449;28;20212;-77
2022/06/12 07:07:37;;;;;;;5.23;4.70;;;;;;;28.90;44.21;98733.41;5053385;28;20601;-78
2022/06/12 07:10:08;;;;;;;4.60;4.20;;;;;;;28.66;44.47;98731.25;5053439;28;20637;-78
2022/06/12 07:12:35;;;;;;;5.77;4.80;;;;;;;28.04;46.10;98729.72;5051437;28;20214;-77
2022/06/12 07:15:02;;;;;;;5.63;4.73;;;;;;;27.01;49.54;98724.34;5053287;28;20303;-77
2022/06/12 07:17:28;;;;;;;5.77;4.63;;;;;;;25.83;54.27;98730.22;5053116;28;20212;-77
2022/06/12 07:19:55;;;;;;;5.63;5.03;;;;;;;24.99;57.31;98731.56;5052966;28;20212;-77
2022/06/12 07:22:22;;;;;;;5.10;4.50;;;;;;;24.45;60.11;98727.19;5053073;28;20212;-77
2022/06/12 07:24:48;;;;;;;6.13;5.03;;;;;;;24.18;62.52;98731.22;5053407;28;20208;-77
2022/06/12 07:27:16;;;;;;;5.97;4.93;;;;;;;24.02;63.13;98725.88;5053883;28;20212;-79
2022/06/12 07:29:43;;;;;;;5.07;4.60;;;;;;;23.91;64.14;98712.81;5057363;28;20229;-79
2022/06/12 07:32:10;;;;;;;5.87;4.60;;;;;;;23.77;63.78;98718.06;5057246;28;20215;-77
2022/06/12 07:34:37;;;;;;;6.07;4.47;;;;;;;23.77;64.60;98712.66;5056994;28;20687;-77
2022/06/12 07:37:06;;;;;;;5.13;4.50;;;;;;;23.78;64.05;98723.25;5057024;28;20239;-77
2022/06/12 07:39:33;;;;;;;5.63;4.83;;;;;;;23.82;62.93;98723.75;5055936;28;20208;-77
2022/06/12 07:42:00;;;;;;;5.30;4.80;;;;;;;23.76;63.06;98714.50;5057232;28;20208;-77
2022/06/12 07:44:31;;;;;;;5.97;5.07;;;;;;;23.78;64.53;98712.47;5057350;28;20204;-77
2022/06/12 07:46:59;;;;;;;4.80;4.40;;;;;;;23.88;65.59;98713.13;5057801;28;20216;-78
2022/06/12 07:49:26;;;;;;;5.83;4.73;;;;;;;24.05;64.42;98713.91;5057599;28;20228;-81
2022/06/12 07:51:54;;;;;;;5.30;4.80;;;;;;;24.09;63.66;98709.84;5057422;28;20219;-78
2022/06/12 07:54:22;;;;;;;5.20;4.70;;;;;;;24.11;63.11;98708.66;5057158;28;20267;-78
2022/06/12 07:56:49;;;;;;;5.47;5.00;;;;;;;24.22;65.38;98704.69;5057466;28;20208;-78
2022/06/12 07:59:16;;;;;;;5.17;4.67;;;;;;;;;;5057205;28;20208;-78
2022/06/12 08:01:44;;;;;;;4.70;4.20;;;;;;;24.36;64.66;98707.47;5057310;28;20227;-78
2022/06/12 08:04:12;;;;;;;5.07;4.63;;;;;;;24.46;63.28;98702.69;5055294;28;20219;-78
2022/06/12 08:06:39;;;;;;;5.80;4.47;;;;;;;24.57;61.58;98698.75;5056637;28;20220;-78
2022/06/12 08:09:07;;;;;;;4.87;4.47;;;;;;;24.47;61.82;98696.28;5056712;28;20246;-78
2022/06/12 08:11:35;;;;;;;6.93;5.07;;;;;;;24.50;63.29;98698.59;5057080;28;20208;-78
2022/06/12 08:14:05;;;;;;;5.63;5.03;;;;;;;24.64;62.04;98697.84;5057042;28;20212;-78
2022/06/12 08:16:32;;;;;;;5.43;4.57;;;;;;;24.67;62.46;98696.66;5056937;28;20319;-78
2022/06/12 08:19:01;;;;;;;5.83;4.67;;;;;;;24.72;62.37;98691.53;5056913;28;20215;-77
2022/06/12 08:21:28;;;;;;;4.60;4.20;;;;;;;24.84;63.13;98701.75;5056648;28;20689;-77
2022/06/12 08:23:58;;;;;;;5.03;4.53;;;;;;;24.92;62.72;98690.03;5056363;28;20212;-77
2022/06/12 08:26:29;;;;;;;5.63;4.80;;;;;;;24.97;62.35;98699.28;5056383;28;20234;-77
2022/06/12 08:28:58;;;;;;;5.20;4.70;;;;;;;25.19;61.67;98701.13;5056000;28;20719;-78
2022/06/12 08:31:27;;;;;;;5.60;4.67;;;;;;;25.30;61.05;98695.25;5054635;28;20253;-78
2022/06/12 08:33:58;;;;;;;4.50;4.10;;;;;;;25.46;58.84;98692.38;5056534;28;20579;-78
2022/06/12 08:36:26;;;;;;;6.67;4.50;;;;;;;25.51;56.90;98689.97;5055893;28;20673;-76
2022/06/12 08:38:53;;;;;;;6.33;4.47;;;;;;;25.45;56.47;98690.72;5055562;28;20247;-76
2022/06/12 08:41:26;;;;;;;5.80;4.67;;;;;;;25.46;55.23;98688.84;5056017;28;20219;-77
2022/06/12 08:43:58;;;;;;;5.80;4.60;;;;;;;25.36;55.97;98689.09;5056189;28;20215;-76
2022/06/12 08:46:33;;;;;;;5.07;4.57;;;;;;;25.31;60.32;98688.81;5055748;28;20210;-79
2022/06/12 08:49:06;;;;;;;4.93;4.13;;;;;;;25.49;60.47;98680.34;5056031;28;20234;-80
2022/06/12 08:51:41;;;;;;;5.77;4.50;;;;;;;25.62;61.31;98681.38;5056165;28;20226;-80
2022/06/12 08:54:11;;;;;;;4.77;4.27;;;;;;;25.85;58.17;98673.16;5056046;28;20212;-79
2022/06/12 08:56:44;;;;;;;4.93;4.43;;;;;;;25.84;58.96;98674.19;5054223;28;20215;-79
2022/06/12 08:59:16;;;;;;;4.90;4.40;;;;;;;25.89;59.15;98667.16;5055892;28;20736;-79
2022/06/12 09:01:45;;;;;;;4.40;4.00;;;;;;;26.02;58.68;98671.94;5056023;28;20291;-79
2022/06/12 09:04:13;;;;;;;5.17;4.43;;;;;;;26.12;60.03;98667.91;5055869;28;20207;-78
2022/06/12 09:06:46;;;;;;;6.27;4.17;;;;;;;26.28;58.01;98670.34;5055769;28;20204;-78
2022/06/12 09:09:22;;;;;;;4.13;3.83;;;;;;;26.40;55.50;98663.41;5055611;28;20238;-79
2022/06/12 09:11:51;;;;;;;4.18;3.80;;;;;;;26.48;54.26;98660.59;5055544;28;20212;-79
2022/06/12 09:14:34;;;;;;;3.97;3.58;;;;;;;26.43;52.19;98665.75;5055454;28;20211;-79
2022/06/12 09:17:16;;;;;;;4.25;3.85;;;;;;;26.32;54.00;98658.13;5055051;28;20678;-78
2022/06/12 09:19:52;;;;;;;4.20;3.60;;;;;;;26.39;53.91;98653.59;5055115;28;20212;-79
2022/06/12 09:22:26;;;;;;;3.63;3.33;;;;;;;26.57;53.67;98651.31;5053826;28;20215;-79
2022/06/12 09:24:59;;;;;;;3.57;3.27;;;;;;;26.72;51.96;98660.22;5055459;28;20212;-79
2022/06/12 09:27:34;;;;;;;3.55;3.25;;;;;;;26.82;51.78;98655.28;5055426;28;20212;-79
2022/06/12 09:30:08;;;;;;;4.13;3.00;;;;;;;26.85;50.51;98646.78;5054986;28;20246;-78
2022/06/12 09:32:46;;;;;;;3.78;3.13;;;;;;;26.90;49.28;98647.03;5055122;28;20643;-79
2022/06/12 09:35:32;;;;;;;3.38;3.08;;;;;;;26.89;47.41;98656.19;5055143;28;20214;-78
2022/06/12 09:38:19;;;;;;;4.95;3.22;;;;;;;26.86;47.13;98651.16;5054860;28;20256;-79
2022/06/12 09:40:57;;;;;;;3.42;2.80;;;;;;;26.84;44.36;98642.41;5054898;28;20216;-77
2022/06/12 09:43:34;;;;;;;3.05;2.75;;;;;;;26.62;44.66;98651.56;5054754;28;20218;-80
2022/06/12 09:46:03;;;;;;;2.80;2.60;;;;;;;26.71;46.30;98653.09;5054802;28;20218;-80
2022/06/12 09:48:47;;;;;;;2.88;2.53;;;;;;;26.83;45.54;98643.41;5052864;28;20726;-79
2022/06/12 09:51:24;;;;;;;4.25;3.20;;;;;;;26.88;44.25;98637.41;5053974;28;20662;-77
2022/06/12 09:54:20;;;;;;;3.10;2.80;;;;;;;26.90;45.69;98633.47;5054449;28;20210;-78
2022/06/12 09:56:52;;;;;;;4.55;2.63;;;;;;;27.03;45.61;98633.56;5054337;28;20215;-79
2022/06/12 09:59:26;;;;;;;2.90;2.60;;;;;;;27.04;45.37;98627.09;5054837;28;20215;-79
2022/06/12 10:01:56;;;;;;;3.90;2.40;;;;;;;27.08;45.46;98626.50;5054527;28;20212;-78
2022/06/12 10:04:30;;;;;;;3.10;2.83;;;;;;;27.32;44.60;98619.78;5054779;28;20212;-80
2022/06/12 10:06:59;;;;;;;3.05;2.75;;;;;;;27.43;44.10;98611.09;5054007;28;20586;-79
2022/06/12 10:09:35;;;;;;;2.83;2.60;;;;;;;27.38;44.08;98614.41;5054402;28;20286;-79
2022/06/12 10:12:06;;;;;;;6.85;2.50;;;;;;;27.46;43.68;98616.13;5054494;28;20216;-79
2022/06/12 10:14:36;;;;;;;3.72;2.58;;;;;;;27.53;44.52;98608.84;5052677;28;20220;-79
2022/06/12 10:17:07;;;;;;;2.88;2.58;;;;;;;27.66;43.07;98617.06;5054046;28;20219;-79
2022/06/12 10:19:40;;;;;;;3.28;2.97;;;;;;;27.74;41.82;98619.59;5054574;28;20210;-77
2022/06/12 10:22:14;;;;;;;2.72;2.50;;;;;;;27.64;43.09;98609.13;5052937;28;20215;-78
2022/06/12 10:24:42;;;;;;;3.47;2.85;;;;;;;27.65;44.58;98608.06;5054390;28;20218;-78
2022/06/12 10:27:12;;;;;;;2.80;2.47;;;;;;;27.80;43.91;98607.97;5054296;28;20216;-78
2022/06/12 10:29:45;;;;;;;2.80;2.60;;;;;;;27.90;43.23;98597.56;5053683;28;20827;-78
2022/06/12 10:32:15;;;;;;;4.13;2.47;;;;;;;28.08;43.38;98603.25;5053553;28;20214;-78
2022/06/12 10:34:41;;;;;;;2.88;2.38;;;;;;;28.18;42.62;98599.09;5054247;28;20219;-77
2022/06/12 10:37:16;;;;;;;3.28;2.47;;;;;;;28.22;40.70;98602.25;5054138;28;20212;-78
2022/06/12 10:39:44;;;;;;;4.00;2.70;;;;;;;28.23;41.05;98601.19;5052124;28;20317;-78
2022/06/12 10:42:31;;;;;;;3.35;2.75;;;;;;;28.29;42.68;98605.81;5054029;28;20214;-79
2022/06/12 10:45:00;;;;;;;3.10;2.78;;;;;;;28.37;42.27;98600.22;5053578;28;20661;-79
2022/06/12 10:47:29;;;;;;;5.68;2.50;;;;;;;28.57;40.87;98595.66;5054019;28;20302;-79
2022/06/12 10:50:19;;;;;;;4.28;2.65;;;;;;;28.64;41.95;98585.59;5053360;28;20243;-78
2022/06/12 10:52:55;;;;;;;2.90;2.40;;;;;;;28.74;41.09;98588.75;5053359;28;20211;-78
2022/06/12 10:55:36;;;;;;;1.92;1.80;;;;;;;28.73;38.39;98581.63;5053287;28;20693;-79
2022/06/12 10:58:18;;;;;;;4.25;2.40;;;;;;;28.70;40.11;98585.63;5053388;28;20216;-76
2022/06/12 11:00:48;;;;;;;2.60;2.40;;;;;;;28.56;39.69;98577.66;5054233;28;20219;-77
2022/06/12 11:03:22;;;;;;;2.70;2.50;;;;;;;28.38;40.53;98566.56;5053975;28;20208;-76
2022/06/12 11:06:03;;;;;;;2.67;2.33;;;;;;;28.36;40.68;98566.75;5051650;28;20673;-76
2022/06/12 11:08:45;;;;;;;2.92;2.42;;;;;;;28.31;40.27;98568.41;5053578;28;20204;-77
2022/06/12 11:11:23;;;;;;;3.10;2.78;;;;;;;28.24;39.73;98573.81;5053394;28;20697;-77
2022/06/12 11:14:12;;;;;;;2.50;2.30;;;;;;;28.19;40.64;98567.34;5053082;28;20681;-81
2022/06/12 11:16:53;;;;;;;3.88;2.63;;;;;;;28.21;41.37;98557.94;5053441;28;20211;-79
2022/06/12 11:19:31;;;;;;;2.67;2.42;;;;;;;28.17;40.47;98556.66;5053412;28;20222;-76
2022/06/12 11:22:10;;;;;;;2.28;2.10;;;;;;;28.45;41.34;98553.78;5053493;28;20218;-77
2022/06/12 11:24:51;;;;;;;2.50;2.30;;;;;;;28.68;41.30;98554.22;5053441;28;20211;-78
2022/06/12 11:27:35;;;;;;;2.60;2.40;;;;;;;28.86;41.15;98543.53;5053301;28;20216;-78
2022/06/12 11:30:10;;;;;;;2.47;2.28;;;;;;;28.99;40.46;98541.63;5051562;28;20255;-78
2022/06/12 11:32:54;;;;;;;3.67;2.47;;;;;;;29.10;40.04;98543.72;5053576;28;20253;-78
2022/06/12 11:35:34;;;;;;;2.67;2.47;;;;;;;29.20;39.41;98538.69;5052829;28;20208;-79
2022/06/12 11:38:16;;;;;;;3.55;2.50;;;;;;;29.47;39.62;98533.97;5053048;28;20325;-79
2022/06/12 11:40:50;;;;;;;4.72;2.47;;;;;;;29.59;39.13;98526.84;5053463;28;20215;-78
2022/06/12 11:43:26;;;;;;;4.70;2.72;;;;;;;29.63;38.71;98533.50;5053091;28;20212;-78
2022/06/12 11:46:06;;;;;;;3.78;2.30;;;;;;;29.64;39.20;98527.03;5053301;28;20215;-79
2022/06/12 11:48:52;;;;;;;2.75;2.40;;;;;;;29.62;39.32;98527.25;5053113;28;20208;-78
2022/06/12 11:51:28;;;;;;;2.88;2.40;;;;;;;29.54;38.89;98522.00;5052729;28;20212;-79
2022/06/12 11:54:10;;;;;;;3.88;2.40;;;;;;;29.21;38.28;98520.44;5053031;28;20218;-79
2022/06/12 11:56:46;;;;;;;2.40;2.20;;;;;;;28.84;39.47;98515.66;5051661;28;20208;-79
2022/06/12 11:59:29;;;;;;;2.72;2.40;;;;;;;28.78;39.50;98519.25;5053219;28;20204;-81
2022/06/12 12:02:08;;;;;;;2.83;2.20;;;;;;;28.64;40.26;98517.59;5052639;28;20204;-77